Time;durP1;ratioP1;P1;durP2;ratioP2;P2;SDS_P1;SDS_P2;PMS_P1;PMS_P2;Temp;Humidity;BMP_temperature;BMP_pressure;BME280_temperature;BME280_humidity;BME280_pressure;Samples;Min_cycle;Max_cycle;Signal;HPM_P1;HPM_P2
2024/02/18 00:01:35;;;;;;;14.48;7.20;;;;;;;;;;4968381;28;20045;-79
2024/02/18 00:04:01;;;;;;;11.93;6.78;;;;;;;;;;4970416;28;20039;-78
2024/02/18 00:06:27;;;;;;;14.13;7.40;;;;;;;;;;4983260;28;20644;-80
2024/02/18 00:08:52;;;;;;;10.13;7.07;;;;;;;;;;4959294;28;20041;-79
2024/02/18 00:11:18;;;;;;;10.00;6.88;;;;;;;;;;4966915;28;20030;-79
2024/02/18 00:13:43;;;;;;;17.27;6.97;;;;;;;;;;4965917;28;20044;-80
2024/02/18 00:16:09;;;;;;;11.23;6.70;;;;;;;;;;4973820;28;20050;-79
2024/02/18 00:18:35;;;;;;;11.68;6.78;;;;;;;;;;4965029;28;20042;-79
2024/02/18 00:21:01;;;;;;;14.63;7.43;;;;;;;;;;4975893;28;20031;-79
2024/02/18 00:23:26;;;;;;;12.40;8.45;;;;;;;;;;4985459;28;20034;-79
2024/02/18 00:25:51;;;;;;;14.40;7.95;;;;;;;;;;4962889;28;20290;-79
2024/02/18 00:28:17;;;;;;;13.30;8.23;;;;;;;;;;4976833;28;20043;-78
2024/02/18 00:30:42;;;;;;;13.85;7.47;;;;;;;;;;4969757;28;20046;-79
2024/02/18 00:33:08;;;;;;;11.02;6.85;;;;;;;;;;4981711;28;20034;-78
2024/02/18 00:35:34;;;;;;;13.63;7.30;;;;;;;;;;4978065;28;20042;-79
2024/02/18 00:37:59;;;;;;;14.07;8.05;;;;;;;;;;4962798;28;20133;-78
2024/02/18 00:40:24;;;;;;;11.80;6.60;;;;;;;;;;4975915;28;20042;-79
2024/02/18 00:42:50;;;;;;;13.65;7.60;;;;;;;;;;4973912;28;20042;-80
2024/02/18 00:45:15;;;;;;;13.70;7.05;;;;;;;;;;4979039;28;20092;-79
2024/02/18 00:47:41;;;;;;;13.68;7.43;;;;;;;;;;4983514;28;20053;-78
2024/02/18 00:50:07;;;;;;;14.70;6.80;;;;;;;;;;4985906;28;20045;-80
2024/02/18 00:52:32;;;;;;;13.95;6.95;;;;;;;;;;4977418;28;20048;-78
2024/02/18 00:54:58;;;;;;;13.73;7.28;;;;;;;;;;4974605;28;20046;-80
2024/02/18 00:57:23;;;;;;;15.80;7.65;;;;;;;;;;4966617;28;20054;-78
2024/02/18 00:59:48;;;;;;;13.95;7.22;;;;;;;;;;4965454;28;20061;-77
2024/02/18 01:02:14;;;;;;;10.30;6.70;;;;;;;;;;4972467;28;20124;-78
2024/02/18 01:04:39;;;;;;;11.88;7.35;;;;;;;;;;4954916;28;20062;-77
2024/02/18 01:07:05;;;;;;;10.13;7.45;;;;;;;;;;4957390;28;20808;-78
2024/02/18 01:09:30;;;;;;;11.73;7.55;;;;;;;;;;4969190;28;20121;-79
2024/02/18 01:11:56;;;;;;;13.30;8.05;;;;;;;;;;4980586;28;20569;-79
2024/02/18 01:14:21;;;;;;;12.00;7.53;;;;;;;;;;4991234;28;20069;-79
2024/02/18 01:16:47;;;;;;;12.55;7.72;;;;;;;;;;4955068;28;20038;-78
2024/02/18 01:19:12;;;;;;;12.52;8.70;;;;;;;;;;4981376;28;20049;-78
2024/02/18 01:21:38;;;;;;;11.35;7.80;;;;;;;;;;4977116;28;20078;-79
2024/02/18 01:24:03;;;;;;;9.57;7.05;;;;;;;;;;4982176;28;20616;-79
2024/02/18 01:26:29;;;;;;;12.07;7.18;;;;;;;;;;4970903;28;20050;-77
2024/02/18 01:28:54;;;;;;;12.38;7.20;;;;;;;;;;4971231;28;20043;-77
2024/02/18 01:31:20;;;;;;;11.10;7.70;;;;;;;;;;4938831;28;20039;-78
2024/02/18 01:33:45;;;;;;;10.65;7.05;;;;;;;;;;4959200;28;20034;-78
2024/02/18 01:36:11;;;;;;;9.88;6.75;;;;;;;;;;4968524;28;20061;-79
2024/02/18 01:38:37;;;;;;;15.20;8.07;;;;;;;;;;4967393;28;20518;-78
2024/02/18 01:41:02;;;;;;;10.88;7.65;;;;;;;;;;4974253;28;20096;-79
2024/02/18 01:43:28;;;;;;;10.70;8.20;;;;;;;;;;4972935;28;20107;-78
2024/02/18 01:45:54;;;;;;;12.50;7.97;;;;;;;;;;4969858;28;20042;-77
2024/02/18 01:48:21;;;;;;;10.43;7.78;;;;;;;;;;4975093;28;20535;-80
2024/02/18 01:50:47;;;;;;;11.45;8.32;;;;;;;;;;4944041;28;20125;-77
2024/02/18 01:53:14;;;;;;;10.32;7.18;;;;;;;;;;4975124;28;20035;-78
2024/02/18 01:55:41;;;;;;;16.25;9.52;;;;;;;;;;4979030;28;20590;-77
2024/02/18 01:58:07;;;;;;;12.57;7.93;;;;;;;;;;4981814;28;20056;-77
2024/02/18 02:00:35;;;;;;;13.27;7.93;;;;;;;;;;4980307;28;20042;-78
2024/02/18 02:03:01;;;;;;;10.60;7.28;;;;;;;;;;4989448;28;20049;-78
2024/02/18 02:05:29;;;;;;;11.35;7.57;;;;;;;;;;4972466;28;20034;-78
2024/02/18 02:07:54;;;;;;;12.32;7.85;;;;;;;;;;4979945;28;20030;-78
2024/02/18 02:10:20;;;;;;;11.25;7.95;;;;;;;;;;4979597;28;20046;-78
2024/02/18 02:12:45;;;;;;;10.68;8.18;;;;;;;;;;4964739;28;20459;-77
2024/02/18 02:15:11;;;;;;;14.05;9.13;;;;;;;;;;4989210;28;20117;-79
2024/02/18 02:17:37;;;;;;;13.43;8.63;;;;;;;;;;4987228;28;20106;-79
2024/02/18 02:20:05;;;;;;;10.32;7.72;;;;;;;;;;4982447;28;20474;-78
2024/02/18 02:22:30;;;;;;;11.25;6.80;;;;;;;;;;4926774;28;20874;-79
2024/02/18 02:24:55;;;;;;;9.93;7.03;;;;;;;;;;4966385;28;20133;-78
2024/02/18 02:27:25;;;;;;;9.50;7.13;;;;;;;;;;4971221;28;20046;-77
2024/02/18 02:29:51;;;;;;;12.43;7.22;;;;;;;;;;4977899;28;20042;-77
2024/02/18 02:32:17;;;;;;;11.63;7.05;;;;;;;;;;4981253;28;20130;-78
2024/02/18 02:34:42;;;;;;;10.25;7.28;;;;;;;;;;4976999;28;20504;-78
2024/02/18 02:37:08;;;;;;;9.40;6.65;;;;;;;;;;4966989;28;20097;-78
2024/02/18 02:39:33;;;;;;;10.40;6.55;;;;;;;;;;4980188;28;20042;-80
2024/02/18 02:42:00;;;;;;;9.35;6.53;;;;;;;;;;4973112;28;20045;-78
2024/02/18 02:44:25;;;;;;;9.18;6.95;;;;;;;;;;4963843;28;20042;-78
2024/02/18 02:46:51;;;;;;;10.65;6.80;;;;;;;;;;4968806;28;20708;-78
2024/02/18 02:49:16;;;;;;;9.50;6.22;;;;;;;;;;4978201;28;20060;-78
2024/02/18 02:51:43;;;;;;;9.95;6.30;;;;;;;;;;4977589;28;20048;-77
2024/02/18 02:54:09;;;;;;;10.07;7.22;;;;;;;;;;4969392;28;20042;-77
2024/02/18 02:56:34;;;;;;;9.55;7.32;;;;;;;;;;4985424;28;20044;-78
2024/02/18 02:59:00;;;;;;;10.88;7.22;;;;;;;;;;4976401;28;20031;-78
2024/02/18 03:01:25;;;;;;;10.98;6.85;;;;;;;;;;4971692;28;20042;-79
2024/02/18 03:03:50;;;;;;;9.85;6.53;;;;;;;;;;4980879;28;20141;-79
2024/02/18 03:06:16;;;;;;;9.93;7.28;;;;;;;;;;4975460;28;20058;-79
2024/02/18 03:08:43;;;;;;;10.25;6.35;;;;;;;;;;4976984;28;20046;-78
2024/02/18 03:11:09;;;;;;;10.48;7.15;;;;;;;;;;4929128;28;20051;-78
2024/02/18 03:13:35;;;;;;;10.45;6.70;;;;;;;;;;4978368;28;20050;-78
2024/02/18 03:16:01;;;;;;;11.77;7.35;;;;;;;;;;4976109;28;20046;-79
2024/02/18 03:18:26;;;;;;;11.25;7.82;;;;;;;;;;4970463;28;20032;-79
2024/02/18 03:20:52;;;;;;;11.75;7.53;;;;;;;;;;4972644;28;20554;-78
2024/02/18 03:23:17;;;;;;;10.60;7.30;;;;;;;;;;4981306;28;20045;-78
2024/02/18 03:25:44;;;;;;;9.82;7.20;;;;;;;;;;4970545;28;20093;-78
2024/02/18 03:28:09;;;;;;;12.60;7.00;;;;;;;;;;4960418;28;20042;-77
2024/02/18 03:30:35;;;;;;;4.40;3.33;;;;;;;;;;4986858;28;20580;-78
2024/02/18 03:33:00;;;;;;;9.73;6.50;;;;;;;;;;4968409;28;21713;-78
2024/02/18 03:35:27;;;;;;;11.45;6.65;;;;;;;;;;4979053;28;20026;-79
2024/02/18 03:37:55;;;;;;;9.43;6.10;;;;;;;;;;4975006;28;20109;-77
2024/02/18 03:40:20;;;;;;;12.00;7.03;;;;;;;;;;4969864;28;20038;-78
2024/02/18 03:42:45;;;;;;;11.68;7.68;;;;;;;;;;4975413;28;20129;-79
2024/02/18 03:45:11;;;;;;;12.52;7.47;;;;;;;;;;4970088;28;20043;-79
2024/02/18 03:47:36;;;;;;;14.02;7.78;;;;;;;;;;4964278;28;20044;-79
2024/02/18 03:50:02;;;;;;;14.35;8.30;;;;;;;;;;4974584;28;20078;-77
2024/02/18 03:52:28;;;;;;;13.30;8.10;;;;;;;;;;4974484;28;20065;-78
2024/02/18 03:54:53;;;;;;;15.55;7.97;;;;;;;;;;4972499;28;20114;-77
2024/02/18 03:57:18;;;;;;;14.30;7.90;;;;;;;;;;4975857;28;20482;-78
2024/02/18 03:59:44;;;;;;;11.93;7.93;;;;;;;;;;4974800;28;20039;-77
2024/02/18 04:02:09;;;;;;;12.82;8.18;;;;;;;;;;4988508;28;20089;-77
2024/02/18 04:04:34;;;;;;;14.65;8.95;;;;;;;;;;4985893;28;20657;-78
2024/02/18 04:07:00;;;;;;;10.57;6.07;;;;;;;;;;4978325;28;20048;-78
2024/02/18 04:09:26;;;;;;;13.23;6.38;;;;;;;;;;4961382;28;20031;-78
2024/02/18 04:11:53;;;;;;;13.10;8.05;;;;;;;;;;4979129;28;20035;-78
2024/02/18 04:14:19;;;;;;;13.48;7.15;;;;;;;;;;4956878;28;20045;-79
2024/02/18 04:16:44;;;;;;;8.30;5.88;;;;;;;;;;4980161;28;20419;-79
2024/02/18 04:19:10;;;;;;;9.57;6.43;;;;;;;;;;4979679;28;20050;-77
2024/02/18 04:21:35;;;;;;;10.15;6.65;;;;;;;;;;4979125;28;20038;-78
2024/02/18 04:24:01;;;;;;;6.38;3.92;;;;;;;;;;4968820;28;20039;-77
2024/02/18 04:26:26;;;;;;;13.15;6.60;;;;;;;;;;4960933;28;20069;-79
2024/02/18 04:28:52;;;;;;;10.45;7.05;;;;;;;;;;4965040;28;20042;-77
2024/02/18 04:31:17;;;;;;;11.70;6.80;;;;;;;;;;4965589;28;20050;-78
2024/02/18 04:33:43;;;;;;;10.85;7.18;;;;;;;;;;4966652;28;20069;-78
2024/02/18 04:36:08;;;;;;;13.35;7.53;;;;;;;;;;4972583;28;20043;-78
2024/02/18 04:38:34;;;;;;;11.93;7.53;;;;;;;;;;4949697;28;20495;-78
2024/02/18 04:41:00;;;;;;;10.88;6.80;;;;;;;;;;4972825;28;20368;-78
2024/02/18 04:43:26;;;;;;;11.23;7.18;;;;;;;;;;4963641;28;20043;-78
2024/02/18 04:45:51;;;;;;;13.10;7.60;;;;;;;;;;4958192;28;20045;-78
2024/02/18 04:48:16;;;;;;;9.55;6.63;;;;;;;;;;4952097;28;20134;-79
2024/02/18 04:50:42;;;;;;;11.35;6.90;;;;;;;;;;4979945;28;20065;-77
2024/02/18 04:53:07;;;;;;;11.27;7.10;;;;;;;;;;4956301;28;20041;-78
2024/02/18 04:55:33;;;;;;;11.85;6.88;;;;;;;;;;4974639;28;20038;-79
2024/02/18 04:57:59;;;;;;;9.57;6.45;;;;;;;;;;4967913;28;20037;-79
2024/02/18 05:00:24;;;;;;;11.38;7.05;;;;;;;;;;4979687;28;20038;-78
2024/02/18 05:02:50;;;;;;;12.05;6.45;;;;;;;;;;4971550;28;20388;-78
2024/02/18 05:05:15;;;;;;;12.65;7.03;;;;;;;;;;4935401;28;20038;-78
2024/02/18 05:07:41;;;;;;;13.68;6.47;;;;;;;;;;4962131;28;20031;-78
2024/02/18 05:10:07;;;;;;;10.85;6.90;;;;;;;;;;4944371;28;20042;-79
2024/02/18 05:12:32;;;;;;;10.50;6.90;;;;;;;;;;4960143;28;20078;-78
2024/02/18 05:14:58;;;;;;;11.88;6.65;;;;;;;;;;4943604;28;20031;-78
2024/02/18 05:17:23;;;;;;;10.18;6.32;;;;;;;;;;4971965;28;20035;-78
2024/02/18 05:19:51;;;;;;;11.45;6.40;;;;;;;;;;4975392;28;20038;-78
2024/02/18 05:22:16;;;;;;;9.98;6.35;;;;;;;;;;4926458;28;20042;-78
2024/02/18 05:24:42;;;;;;;11.85;6.82;;;;;;;;;;4981922;28;20753;-78
2024/02/18 05:27:07;;;;;;;10.52;5.82;;;;;;;;;;4979354;28;20208;-78
2024/02/18 05:29:32;;;;;;;12.05;6.60;;;;;;;;;;4972980;28;20474;-80
2024/02/18 05:31:58;;;;;;;13.00;7.15;;;;;;;;;;4943988;28;20035;-79
2024/02/18 05:34:23;;;;;;;14.00;6.88;;;;;;;;;;4958580;28;20085;-80
2024/02/18 05:36:49;;;;;;;12.23;6.63;;;;;;;;;;4946545;28;20118;-80
2024/02/18 05:39:14;;;;;;;13.23;7.00;;;;;;;;;;4959463;28;20051;-79
2024/02/18 05:41:40;;;;;;;13.55;7.38;;;;;;;;;;4959127;28;20321;-79
2024/02/18 05:44:06;;;;;;;13.02;6.93;;;;;;;;;;4962369;28;20526;-78
2024/02/18 05:46:32;;;;;;;12.35;6.43;;;;;;;;;;4967260;28;20058;-80
2024/02/18 05:48:57;;;;;;;10.55;6.13;;;;;;;;;;4955220;28;20041;-80
2024/02/18 05:51:22;;;;;;;13.85;7.30;;;;;;;;;;4974180;28;20031;-78
2024/02/18 05:53:52;;;;;;;14.48;7.47;;;;;;;;;;4956758;28;20043;-79
2024/02/18 05:56:19;;;;;;;12.32;5.10;;;;;;;;;;4977180;28;20038;-78
2024/02/18 05:58:44;;;;;;;13.52;6.45;;;;;;;;;;4968541;28;20027;-79
2024/02/18 06:01:09;;;;;;;13.45;6.30;;;;;;;;;;4967413;28;20081;-78
2024/02/18 06:03:39;;;;;;;21.08;8.85;;;;;;;;;;4974557;28;20046;-79
2024/02/18 06:06:05;;;;;;;19.20;8.13;;;;;;;;;;4967363;28;20045;-78
2024/02/18 06:08:30;;;;;;;14.25;7.50;;;;;;;;;;4963969;28;20042;-78
2024/02/18 06:11:20;;;;;;;11.27;7.13;;;;;;;;;;4950886;28;20046;-77
2024/02/18 06:14:29;;;;;;;11.05;6.57;;;;;;;;;;4969039;28;20038;-79
2024/02/18 06:20:38;;;;;;;7.75;5.25;;;;;;;;;;4917803;28;20097;-78
2024/02/18 06:23:22;;;;;;;10.32;5.22;;;;;;;;;;4984320;28;20038;-77
2024/02/18 06:25:56;;;;;;;8.77;5.82;;;;;;;;;;4972989;28;20098;-77
2024/02/18 06:28:22;;;;;;;10.00;6.22;;;;;;;;;;4960028;28;20031;-77
2024/02/18 06:30:50;;;;;;;10.63;6.03;;;;;;;;;;4975723;28;20041;-78
2024/02/18 06:33:20;;;;;;;8.98;5.63;;;;;;;;;;4961694;28;20070;-77
2024/02/18 06:35:45;;;;;;;9.88;6.32;;;;;;;;;;4960131;28;20062;-77
2024/02/18 06:38:14;;;;;;;8.32;5.63;;;;;;;;;;4960410;28;20597;-76
2024/02/18 06:40:41;;;;;;;11.00;7.30;;;;;;;;;;4961755;28;20061;-76
2024/02/18 06:43:06;;;;;;;12.02;7.20;;;;;;;;;;4963956;28;20027;-78
2024/02/18 06:45:32;;;;;;;8.90;6.22;;;;;;;;;;4963823;28;20042;-77
2024/02/18 06:47:57;;;;;;;9.70;7.10;;;;;;;;;;4962210;28;20126;-78
2024/02/18 06:50:23;;;;;;;11.73;6.53;;;;;;;;;;4994957;28;20030;-78
2024/02/18 06:52:49;;;;;;;16.45;9.27;;;;;;;;;;4965977;28;21079;-77
2024/02/18 06:55:14;;;;;;;12.15;6.75;;;;;;;;;;4962610;28;20027;-78
2024/02/18 06:57:44;;;;;;;21.92;11.48;;;;;;;;;;4984009;28;20030;-78
2024/02/18 07:00:10;;;;;;;19.58;10.85;;;;;;;;;;4967245;28;20018;-77
2024/02/18 07:02:37;;;;;;;17.52;10.50;;;;;;;;;;4962931;28;20050;-77
2024/02/18 07:05:04;;;;;;;13.63;7.43;;;;;;;;;;4954353;28;20057;-77
2024/02/18 07:07:31;;;;;;;14.00;6.50;;;;;;;;;;4967643;28;20066;-80
2024/02/18 07:09:56;;;;;;;13.45;7.53;;;;;;;;;;4959497;28;20508;-77
2024/02/18 07:12:22;;;;;;;14.25;7.10;;;;;;;;;;4976249;28;20058;-78
2024/02/18 07:14:51;;;;;;;13.05;7.43;;;;;;;;;;4967098;28;20019;-77
2024/02/18 07:17:19;;;;;;;12.10;7.13;;;;;;;;;;4981563;28;20042;-78
2024/02/18 07:19:46;;;;;;;13.80;8.15;;;;;;;;;;4983139;28;20022;-78
2024/02/18 07:22:14;;;;;;;9.80;7.13;;;;;;;;;;4967222;28;20027;-78
2024/02/18 07:24:40;;;;;;;14.60;8.27;;;;;;;;;;4970728;28;20026;-79
2024/02/18 07:27:07;;;;;;;12.05;7.32;;;;;;;;;;4964626;28;20027;-78
2024/02/18 07:29:33;;;;;;;10.85;5.97;;;;;;;;;;4960434;28;20019;-79
2024/02/18 07:31:58;;;;;;;10.68;5.53;;;;;;;;;;4961344;28;20050;-79
2024/02/18 07:34:23;;;;;;;9.55;6.30;;;;;;;;;;4959050;28;20038;-77
2024/02/18 07:36:49;;;;;;;11.27;6.55;;;;;;;;;;4983271;28;20126;-78
2024/02/18 07:39:14;;;;;;;10.55;6.25;;;;;;;;;;4979289;28;20035;-80
2024/02/18 07:41:40;;;;;;;10.10;6.50;;;;;;;;;;4952930;28;20547;-76
2024/02/18 07:44:06;;;;;;;10.88;6.57;;;;;;;;;;4952796;28;20066;-79
2024/02/18 07:46:31;;;;;;;11.70;7.18;;;;;;;;;;4962255;28;20081;-78
2024/02/18 07:48:57;;;;;;;5.63;3.70;;;;;;;;;;4971808;28;20042;-78
2024/02/18 07:51:22;;;;;;;11.20;6.75;;;;;;;;;;4972590;28;20093;-80
2024/02/18 07:53:48;;;;;;;7.57;5.15;;;;;;;;;;4976922;28;20046;-77
2024/02/18 07:56:14;;;;;;;13.25;7.07;;;;;;;;;;4961413;28;20031;-79
2024/02/18 07:58:39;;;;;;;11.27;7.25;;;;;;;;;;4972498;28;20092;-79
2024/02/18 08:01:05;;;;;;;10.80;7.07;;;;;;;;;;4979435;28;20499;-78
2024/02/18 08:03:30;;;;;;;9.32;4.95;;;;;;;;;;4953697;28;20053;-79
2024/02/18 08:05:57;;;;;;;13.80;7.78;;;;;;;;;;4973043;28;20053;-79
2024/02/18 08:08:24;;;;;;;13.75;7.82;;;;;;;;;;4977902;28;20043;-79
2024/02/18 08:10:49;;;;;;;10.85;6.70;;;;;;;;;;4956170;28;20595;-79
2024/02/18 08:13:15;;;;;;;18.77;8.00;;;;;;;;;;4975298;28;20125;-77
2024/02/18 08:15:40;;;;;;;13.07;7.65;;;;;;;;;;4961052;28;20337;-79
2024/02/18 08:18:07;;;;;;;14.77;7.28;;;;;;;;;;4955989;28;20071;-79
2024/02/18 08:20:33;;;;;;;12.68;7.28;;;;;;;;;;4947027;28;20057;-78
2024/02/18 08:22:58;;;;;;;16.52;7.30;;;;;;;;;;4974574;28;20094;-79
2024/02/18 08:25:24;;;;;;;12.75;7.10;;;;;;;;;;4972026;28;20039;-79
2024/02/18 08:27:49;;;;;;;8.77;4.65;;;;;;;;;;4962500;28;20601;-79
2024/02/18 08:30:15;;;;;;;5.13;3.30;;;;;;;;;;4983150;28;20054;-78
2024/02/18 08:32:40;;;;;;;14.45;7.25;;;;;;;;;;4979291;28;20097;-78
2024/02/18 08:35:06;;;;;;;21.92;8.50;;;;;;;;;;4959587;28;20039;-79
2024/02/18 08:37:32;;;;;;;14.63;7.50;;;;;;;;;;4924753;28;20102;-78
2024/02/18 08:39:57;;;;;;;19.70;8.98;;;;;;;;;;4960329;28;20030;-78
2024/02/18 08:42:23;;;;;;;16.13;7.20;;;;;;;;;;4975130;28;20046;-79
2024/02/18 08:44:48;;;;;;;12.77;7.10;;;;;;;;;;4967952;28;20078;-78
2024/02/18 08:47:14;;;;;;;12.93;6.93;;;;;;;;;;4970826;28;20049;-78
2024/02/18 08:49:42;;;;;;;11.70;6.57;;;;;;;;;;4967523;28;20599;-78
2024/02/18 08:52:07;;;;;;;15.00;7.90;;;;;;;;;;4936677;28;20043;-78
2024/02/18 08:54:33;;;;;;;11.48;6.75;;;;;;;;;;4941029;28;20042;-78
2024/02/18 08:56:58;;;;;;;12.40;7.70;;;;;;;;;;4957543;28;20043;-77
2024/02/18 08:59:25;;;;;;;12.82;7.15;;;;;;;;;;4953529;28;20127;-77
2024/02/18 09:01:57;;;;;;;13.93;7.22;;;;;;;;;;4979901;28;20038;-77
2024/02/18 09:04:23;;;;;;;16.38;7.55;;;;;;;;;;4959640;28;20535;-78
2024/02/18 09:06:49;;;;;;;10.85;6.75;;;;;;;;;;4963197;28;20039;-77
2024/02/18 09:09:14;;;;;;;15.52;7.22;;;;;;;;;;4932754;28;20050;-77
2024/02/18 09:11:42;;;;;;;13.40;6.22;;;;;;;;;;4974092;28;20861;-77
2024/02/18 09:14:08;;;;;;;16.85;7.22;;;;;;;;;;4975963;28;20039;-77
2024/02/18 09:16:33;;;;;;;17.80;7.95;;;;;;;;;;4953744;28;20058;-77
2024/02/18 09:18:58;;;;;;;12.55;7.53;;;;;;;;;;4968967;28;20098;-77
2024/02/18 09:21:24;;;;;;;13.88;8.30;;;;;;;;;;4958905;28;20655;-77
2024/02/18 09:23:49;;;;;;;20.50;8.80;;;;;;;;;;4967122;28;20042;-77
2024/02/18 09:26:15;;;;;;;16.20;8.68;;;;;;;;;;4953256;28;20074;-77
2024/02/18 09:28:40;;;;;;;18.63;10.25;;;;;;;;;;4965136;28;20074;-77
2024/02/18 09:31:08;;;;;;;17.50;9.63;;;;;;;;;;4974962;28;20042;-77
2024/02/18 09:33:33;;;;;;;15.30;9.18;;;;;;;;;;4977244;28;20053;-77
2024/02/18 09:35:59;;;;;;;4.53;3.10;;;;;;;;;;4964912;28;20096;-77
2024/02/18 09:38:24;;;;;;;14.30;7.47;;;;;;;;;;4948639;28;20106;-77
2024/02/18 09:40:49;;;;;;;16.13;8.60;;;;;;;;;;4964261;28;20038;-77
2024/02/18 09:43:15;;;;;;;20.48;8.85;;;;;;;;;;4958075;28;20084;-77
2024/02/18 09:45:45;;;;;;;17.23;8.77;;;;;;;;;;4984329;28;20047;-77
2024/02/18 09:48:13;;;;;;;23.67;12.75;;;;;;;;;;4961885;28;20105;-77
2024/02/18 09:50:39;;;;;;;18.60;10.32;;;;;;;;;;4975069;28;20563;-77
2024/02/18 09:53:05;;;;;;;24.33;12.50;;;;;;;;;;4950760;28;20073;-77
2024/02/18 09:55:31;;;;;;;26.58;14.05;;;;;;;;;;4942001;28;20050;-77
2024/02/18 09:57:56;;;;;;;24.20;12.93;;;;;;;;;;4942415;28;20050;-77
2024/02/18 10:00:22;;;;;;;19.45;10.75;;;;;;;;;;4954757;28;20047;-77
2024/02/18 10:02:48;;;;;;;22.02;11.65;;;;;;;;;;4949643;28;20124;-77
2024/02/18 10:05:13;;;;;;;18.92;11.15;;;;;;;;;;4960264;28;20038;-77
2024/02/18 10:07:39;;;;;;;18.13;10.80;;;;;;;;;;4968576;28;20038;-77
2024/02/18 10:10:07;;;;;;;19.85;11.13;;;;;;;;;;4964569;28;20030;-78
2024/02/18 10:12:35;;;;;;;16.75;9.40;;;;;;;;;;4966272;28;20122;-78
2024/02/18 10:15:03;;;;;;;14.48;8.35;;;;;;;;;;4971089;28;20061;-77
2024/02/18 10:17:30;;;;;;;18.42;10.75;;;;;;;;;;4985318;28;20049;-77
2024/02/18 10:19:56;;;;;;;22.50;10.50;;;;;;;;;;4988488;28;20042;-77
2024/02/18 10:22:23;;;;;;;17.27;10.05;;;;;;;;;;4987374;28;20037;-77
2024/02/18 10:24:49;;;;;;;20.92;10.38;;;;;;;;;;4992958;28;20042;-77
2024/02/18 10:27:16;;;;;;;20.05;11.20;;;;;;;;;;4973965;28;20415;-77
2024/02/18 10:29:41;;;;;;;21.52;11.35;;;;;;;;;;4988471;28;20073;-77
2024/02/18 10:32:06;;;;;;;22.67;11.93;;;;;;;;;;4982410;28;20034;-77
2024/02/18 10:34:32;;;;;;;20.38;10.82;;;;;;;;;;4983910;28;20100;-77
2024/02/18 10:37:07;;;;;;;21.75;10.80;;;;;;;;;;4991244;28;20046;-77
2024/02/18 10:39:34;;;;;;;19.60;10.40;;;;;;;;;;4974335;28;20121;-77
2024/02/18 10:42:03;;;;;;;17.30;9.38;;;;;;;;;;4949465;28;20035;-77
2024/02/18 10:44:31;;;;;;;17.73;10.52;;;;;;;;;;4984990;28;20033;-77
2024/02/18 10:46:57;;;;;;;19.90;10.35;;;;;;;;;;4984990;28;20034;-77
2024/02/18 10:49:28;;;;;;;21.73;11.95;;;;;;;;;;4986986;28;20092;-77
2024/02/18 10:52:21;;;;;;;19.67;10.95;;;;;;;;;;4977525;28;20056;-77
2024/02/18 10:55:24;;;;;;;18.23;11.43;;;;;;;;;;4960320;28;20534;-77
2024/02/18 10:58:32;;;;;;;17.90;9.27;;;;;;;;;;4983744;28;20080;-77
2024/02/18 11:01:00;;;;;;;19.48;10.25;;;;;;;;;;4933609;28;20127;-77
2024/02/18 11:03:38;;;;;;;17.50;9.82;;;;;;;;;;4935892;28;20058;-77
2024/02/18 11:06:03;;;;;;;14.07;7.25;;;;;;;;;;4982264;28;20527;-78
2024/02/18 11:08:31;;;;;;;14.93;8.48;;;;;;;;;;4987542;28;20100;-77
2024/02/18 11:10:58;;;;;;;13.48;7.30;;;;;;;;;;4979128;28;20038;-77
2024/02/18 11:13:25;;;;;;;21.33;10.43;;;;;;;;;;4983248;28;20037;-77
2024/02/18 11:15:51;;;;;;;16.20;9.80;;;;;;;;;;4967202;28;20046;-77
2024/02/18 11:18:17;;;;;;;15.95;8.65;;;;;;;;;;4957509;28;20092;-77
2024/02/18 11:20:43;;;;;;;12.70;6.85;;;;;;;;;;4982143;28;20046;-77
2024/02/18 11:23:08;;;;;;;13.93;7.30;;;;;;;;;;4974760;28;20031;-77
2024/02/18 11:25:35;;;;;;;9.57;5.43;;;;;;;;;;4979408;28;20050;-77
2024/02/18 11:28:00;;;;;;;10.85;5.20;;;;;;;;;;4986504;28;20604;-77
2024/02/18 11:30:26;;;;;;;7.30;3.70;;;;;;;;;;4988289;28;20050;-77
2024/02/18 11:32:51;;;;;;;8.57;5.00;;;;;;;;;;4976274;28;20121;-77
2024/02/18 11:35:18;;;;;;;7.80;4.88;;;;;;;;;;4967791;28;20546;-77
2024/02/18 11:37:43;;;;;;;8.82;4.78;;;;;;;;;;4972667;28;20053;-77
2024/02/18 11:40:12;;;;;;;8.90;4.63;;;;;;;;;;4976961;28;20115;-77
2024/02/18 11:42:38;;;;;;;5.32;3.67;;;;;;;;;;4976412;28;20128;-77
2024/02/18 11:45:08;;;;;;;7.82;4.97;;;;;;;;;;4970233;28;20046;-77
2024/02/18 11:47:34;;;;;;;10.38;5.00;;;;;;;;;;4984894;28;20426;-77
2024/02/18 11:49:59;;;;;;;5.30;3.35;;;;;;;;;;4976618;28;20057;-77
2024/02/18 11:52:25;;;;;;;8.15;4.15;;;;;;;;;;4987440;28;20530;-77
2024/02/18 11:54:50;;;;;;;7.38;4.38;;;;;;;;;;4980869;28;20120;-77
2024/02/18 11:57:16;;;;;;;7.13;4.15;;;;;;;;;;4980853;28;21025;-77
2024/02/18 11:59:41;;;;;;;8.27;4.28;;;;;;;;;;4965266;28;20078;-77
2024/02/18 12:02:07;;;;;;;7.85;3.92;;;;;;;;;;4983116;28;20046;-77
2024/02/18 12:04:34;;;;;;;4.93;3.45;;;;;;;;;;4983382;28;20050;-77
2024/02/18 12:07:01;;;;;;;4.68;2.83;;;;;;;;;;4940571;28;20049;-77
2024/02/18 12:09:27;;;;;;;5.38;2.97;;;;;;;;;;4985631;28;20037;-77
2024/02/18 12:11:53;;;;;;;8.10;4.20;;;;;;;;;;4984220;28;20506;-77
2024/02/18 12:14:20;;;;;;;8.77;4.43;;;;;;;;;;4991727;28;20125;-77
2024/02/18 12:16:50;;;;;;;11.57;4.85;;;;;;;;;;4985272;28;20038;-77
2024/02/18 12:19:18;;;;;;;4.82;3.22;;;;;;;;;;4972803;28;20077;-77
2024/02/18 12:21:52;;;;;;;6.63;3.80;;;;;;;;;;4971068;28;20053;-77
2024/02/18 12:24:17;;;;;;;5.85;3.60;;;;;;;;;;4986388;28;20549;-77
2024/02/18 12:26:43;;;;;;;4.55;2.72;;;;;;;;;;4979151;28;20046;-77
2024/02/18 12:29:08;;;;;;;4.93;3.30;;;;;;;;;;4973919;28;20046;-77
2024/02/18 12:31:34;;;;;;;3.38;2.42;;;;;;;;;;4985492;28;20034;-77
2024/02/18 12:34:00;;;;;;;6.82;3.50;;;;;;;;;;4980083;28;20051;-77
2024/02/18 12:36:27;;;;;;;8.48;4.90;;;;;;;;;;4975992;28;20568;-77
2024/02/18 12:38:52;;;;;;;4.35;2.92;;;;;;;;;;4977902;28;20042;-77
2024/02/18 12:41:18;;;;;;;8.00;4.57;;;;;;;;;;4972963;28;20035;-77
2024/02/18 12:43:47;;;;;;;10.15;4.40;;;;;;;;;;4971602;28;20391;-77
2024/02/18 12:46:12;;;;;;;8.57;4.45;;;;;;;;;;4981163;28;20084;-77
2024/02/18 12:48:39;;;;;;;5.00;3.33;;;;;;;;;;4980847;28;20046;-77
2024/02/18 12:51:14;;;;;;;6.72;3.72;;;;;;;;;;4979136;28;20119;-77
2024/02/18 12:53:41;;;;;;;1.50;1.33;;;;;;;;;;4933902;28;20046;-77
2024/02/18 12:56:11;;;;;;;6.95;4.28;;;;;;;;;;4960486;28;20042;-77
2024/02/18 12:58:38;;;;;;;9.25;5.25;;;;;;;;;;4978833;28;20046;-77
2024/02/18 13:01:04;;;;;;;5.70;3.38;;;;;;;;;;4973960;28;20031;-77
2024/02/18 13:03:29;;;;;;;8.77;4.53;;;;;;;;;;4985890;28;20054;-77
2024/02/18 13:05:57;;;;;;;6.25;3.88;;;;;;;;;;4983629;28;20055;-77
2024/02/18 13:08:23;;;;;;;5.93;3.90;;;;;;;;;;4970935;28;20422;-77
2024/02/18 13:10:49;;;;;;;3.72;2.55;;;;;;;;;;4956545;28;20115;-77
2024/02/18 13:13:14;;;;;;;7.68;4.32;;;;;;;;;;4970252;28;20046;-78
2024/02/18 13:15:39;;;;;;;7.78;4.72;;;;;;;;;;4971006;28;20043;-77
2024/02/18 13:18:05;;;;;;;7.07;4.10;;;;;;;;;;4973704;28;20085;-77
2024/02/18 13:20:30;;;;;;;8.52;5.13;;;;;;;;;;4979003;28;20041;-77
2024/02/18 13:22:56;;;;;;;5.72;3.58;;;;;;;;;;4963964;28;20224;-77
2024/02/18 13:25:22;;;;;;;7.75;3.95;;;;;;;;;;4951179;28;20681;-77
2024/02/18 13:27:48;;;;;;;6.95;4.20;;;;;;;;;;4966431;28;20410;-77
2024/02/18 13:30:13;;;;;;;7.88;3.80;;;;;;;;;;4971140;28;20172;-77
2024/02/18 13:32:39;;;;;;;8.68;4.70;;;;;;;;;;4967183;28;20403;-77
2024/02/18 13:35:07;;;;;;;7.63;4.75;;;;;;;;;;4960502;28;20039;-77
2024/02/18 13:37:33;;;;;;;10.77;5.07;;;;;;;;;;4956747;28;20055;-77
2024/02/18 13:39:58;;;;;;;4.40;3.10;;;;;;;;;;4943564;28;20035;-77
2024/02/18 13:42:23;;;;;;;4.60;2.88;;;;;;;;;;4959665;28;20034;-76
2024/02/18 13:44:49;;;;;;;12.30;4.40;;;;;;;;;;4971315;28;20049;-76
2024/02/18 13:47:14;;;;;;;7.57;4.88;;;;;;;;;;4974936;28;20529;-77
2024/02/18 13:49:40;;;;;;;7.03;5.13;;;;;;;;;;4984955;28;20030;-77
2024/02/18 13:52:06;;;;;;;5.53;3.55;;;;;;;;;;4960821;28;20045;-77
2024/02/18 13:54:32;;;;;;;6.53;4.78;;;;;;;;;;4974113;28;20078;-77
2024/02/18 13:56:58;;;;;;;7.63;4.28;;;;;;;;;;4948619;28;20093;-77
2024/02/18 13:59:23;;;;;;;3.05;2.25;;;;;;;;;;4981623;28;20038;-77
2024/02/18 14:01:49;;;;;;;7.72;4.53;;;;;;;;;;4954193;28;20381;-76
2024/02/18 14:04:15;;;;;;;4.25;2.50;;;;;;;;;;4966976;28;20042;-77
2024/02/18 14:06:41;;;;;;;7.80;3.22;;;;;;;;;;4977544;28;20041;-77
2024/02/18 14:09:12;;;;;;;8.18;4.68;;;;;;;;;;4960715;28;20249;-77
2024/02/18 14:11:38;;;;;;;7.72;4.63;;;;;;;;;;4975500;28;20034;-77
2024/02/18 14:14:04;;;;;;;7.55;4.20;;;;;;;;;;4981853;28;20048;-77
2024/02/18 14:16:35;;;;;;;7.28;5.00;;;;;;;;;;4978221;28;20414;-77
2024/02/18 14:19:00;;;;;;;9.10;4.90;;;;;;;;;;4982141;28;20038;-77
2024/02/18 14:21:26;;;;;;;2.90;2.38;;;;;;;;;;4989554;28;20093;-77
2024/02/18 14:23:51;;;;;;;8.20;4.75;;;;;;;;;;4989961;28;20137;-77
2024/02/18 14:26:16;;;;;;;6.60;4.65;;;;;;;;;;4991786;28;20479;-77
2024/02/18 14:28:42;;;;;;;4.75;3.63;;;;;;;;;;4978625;28;20158;-78
2024/02/18 14:31:07;;;;;;;6.00;3.42;;;;;;;;;;4984502;28;20030;-78
2024/02/18 14:33:32;;;;;;;10.55;4.90;;;;;;;;;;4989219;28;20072;-78